sensor_id;sensor_type;location;lat;lon;timestamp;temperature;humidity
28614;DHT22;15806;53.548;9.964;2023-07-08T00:00:40;18.40;99.90
28614;DHT22;15806;53.548;9.964;2023-07-08T00:02:21;18.40;99.90
28614;DHT22;15806;53.548;9.964;2023-07-08T00:04:01;18.40;99.90
28614;DHT22;15806;53.548;9.964;2023-07-08T00:05:42;18.40;99.90
28614;DHT22;15806;53.548;9.964;2023-07-08T00:07:23;18.40;99.90
28614;DHT22;15806;53.548;9.964;2023-07-08T00:09:09;18.40;99.90
28614;DHT22;15806;53.548;9.964;2023-07-08T00:10:51;18.50;99.90
28614;DHT22;15806;53.548;9.964;2023-07-08T00:12:31;18.40;99.90
28614;DHT22;15806;53.548;9.964;2023-07-08T00:14:12;18.40;99.90
28614;DHT22;15806;53.548;9.964;2023-07-08T00:15:52;18.40;99.90
28614;DHT22;15806;53.548;9.964;2023-07-08T00:17:33;18.40;99.90
28614;DHT22;15806;53.548;9.964;2023-07-08T00:19:13;18.40;99.90
28614;DHT22;15806;53.548;9.964;2023-07-08T00:20:54;18.30;99.90
28614;DHT22;15806;53.548;9.964;2023-07-08T00:22:34;18.30;99.90
28614;DHT22;15806;53.548;9.964;2023-07-08T00:24:15;18.30;99.90
28614;DHT22;15806;53.548;9.964;2023-07-08T00:25:55;18.30;99.90
28614;DHT22;15806;53.548;9.964;2023-07-08T00:27:36;18.30;99.90
28614;DHT22;15806;53.548;9.964;2023-07-08T00:29:17;18.20;99.90
28614;DHT22;15806;53.548;9.964;2023-07-08T00:30:57;18.30;99.90
28614;DHT22;15806;53.548;9.964;2023-07-08T00:32:38;18.20;99.90
28614;DHT22;15806;53.548;9.964;2023-07-08T00:34:18;18.20;99.90
28614;DHT22;15806;53.548;9.964;2023-07-08T00:35:59;18.20;99.90
28614;DHT22;15806;53.548;9.964;2023-07-08T00:37:40;18.20;99.90
28614;DHT22;15806;53.548;9.964;2023-07-08T00:39:20;18.20;99.90
28614;DHT22;15806;53.548;9.964;2023-07-08T00:41:24;18.20;99.90
28614;DHT22;15806;53.548;9.964;2023-07-08T00:43:06;18.20;99.90
28614;DHT22;15806;53.548;9.964;2023-07-08T00:44:48;18.20;99.90
28614;DHT22;15806;53.548;9.964;2023-07-08T00:49:58;18.10;99.90
28614;DHT22;15806;53.548;9.964;2023-07-08T00:51:40;18.10;99.90
28614;DHT22;15806;53.548;9.964;2023-07-08T00:53:30;18.00;99.90
28614;DHT22;15806;53.548;9.964;2023-07-08T00:55:11;18.00;99.90
28614;DHT22;15806;53.548;9.964;2023-07-08T00:56:59;18.00;99.90
28614;DHT22;15806;53.548;9.964;2023-07-08T00:58:49;18.00;99.90
28614;DHT22;15806;53.548;9.964;2023-07-08T01:00:31;18.00;99.90
28614;DHT22;15806;53.548;9.964;2023-07-08T01:02:13;18.00;99.90
28614;DHT22;15806;53.548;9.964;2023-07-08T01:04:02;18.00;99.90
28614;DHT22;15806;53.548;9.964;2023-07-08T01:05:44;18.10;99.90
28614;DHT22;15806;53.548;9.964;2023-07-08T01:07:26;18.10;99.90
28614;DHT22;15806;53.548;9.964;2023-07-08T01:09:08;18.10;99.90
28614;DHT22;15806;53.548;9.964;2023-07-08T01:10:53;18.00;99.90
28614;DHT22;15806;53.548;9.964;2023-07-08T01:12:39;17.90;99.90
28614;DHT22;15806;53.548;9.964;2023-07-08T01:14:22;18.10;99.90
28614;DHT22;15806;53.548;9.964;2023-07-08T01:16:05;18.20;99.90
28614;DHT22;15806;53.548;9.964;2023-07-08T01:17:46;18.20;99.90
28614;DHT22;15806;53.548;9.964;2023-07-08T01:19:27;18.20;99.90
28614;DHT22;15806;53.548;9.964;2023-07-08T01:21:35;18.20;99.90
28614;DHT22;15806;53.548;9.964;2023-07-08T01:23:17;18.20;99.90
28614;DHT22;15806;53.548;9.964;2023-07-08T01:24:58;18.20;99.90
28614;DHT22;15806;53.548;9.964;2023-07-08T01:26:43;18.10;99.90
28614;DHT22;15806;53.548;9.964;2023-07-08T01:28:24;18.10;99.90
28614;DHT22;15806;53.548;9.964;2023-07-08T01:30:06;18.00;99.90
28614;DHT22;15806;53.548;9.964;2023-07-08T01:31:46;18.00;99.90
28614;DHT22;15806;53.548;9.964;2023-07-08T01:33:27;17.90;99.90
28614;DHT22;15806;53.548;9.964;2023-07-08T01:35:09;17.90;99.90
28614;DHT22;15806;53.548;9.964;2023-07-08T01:36:54;17.80;99.90
28614;DHT22;15806;53.548;9.964;2023-07-08T01:38:35;17.80;99.90
28614;DHT22;15806;53.548;9.964;2023-07-08T01:40:29;17.80;99.90
28614;DHT22;15806;53.548;9.964;2023-07-08T01:42:10;17.70;99.90
28614;DHT22;15806;53.548;9.964;2023-07-08T01:43:51;17.70;99.90
28614;DHT22;15806;53.548;9.964;2023-07-08T01:45:36;17.80;99.90
28614;DHT22;15806;53.548;9.964;2023-07-08T01:47:19;17.80;99.90
28614;DHT22;15806;53.548;9.964;2023-07-08T01:49:01;17.80;99.90
28614;DHT22;15806;53.548;9.964;2023-07-08T01:50:47;17.70;99.90
28614;DHT22;15806;53.548;9.964;2023-07-08T01:52:29;17.70;99.90
28614;DHT22;15806;53.548;9.964;2023-07-08T01:54:09;17.70;99.90
28614;DHT22;15806;53.548;9.964;2023-07-08T01:55:50;17.70;99.90
28614;DHT22;15806;53.548;9.964;2023-07-08T01:57:31;17.70;99.90
28614;DHT22;15806;53.548;9.964;2023-07-08T01:59:11;17.70;99.90
28614;DHT22;15806;53.548;9.964;2023-07-08T02:00:52;17.70;99.90
28614;DHT22;15806;53.548;9.964;2023-07-08T02:02:33;17.70;99.90
28614;DHT22;15806;53.548;9.964;2023-07-08T02:04:13;17.60;1.00
28614;DHT22;15806;53.548;9.964;2023-07-08T02:05:54;17.60;1.00
28614;DHT22;15806;53.548;9.964;2023-07-08T02:07:34;17.60;1.00
28614;DHT22;15806;53.548;9.964;2023-07-08T02:09:15;17.60;1.00
28614;DHT22;15806;53.548;9.964;2023-07-08T02:10:57;17.50;1.00
28614;DHT22;15806;53.548;9.964;2023-07-08T02:12:38;17.50;1.00
28614;DHT22;15806;53.548;9.964;2023-07-08T02:14:18;17.60;1.00
28614;DHT22;15806;53.548;9.964;2023-07-08T02:15:59;17.60;1.00
28614;DHT22;15806;53.548;9.964;2023-07-08T02:17:39;17.60;1.00
28614;DHT22;15806;53.548;9.964;2023-07-08T02:19:20;17.60;1.00
28614;DHT22;15806;53.548;9.964;2023-07-08T02:21:00;17.70;1.00
28614;DHT22;15806;53.548;9.964;2023-07-08T02:22:41;17.70;1.00
28614;DHT22;15806;53.548;9.964;2023-07-08T02:24:22;17.70;1.00
28614;DHT22;15806;53.548;9.964;2023-07-08T02:26:02;17.70;1.00
28614;DHT22;15806;53.548;9.964;2023-07-08T02:27:43;17.70;1.00
28614;DHT22;15806;53.548;9.964;2023-07-08T02:29:23;17.70;1.00
28614;DHT22;15806;53.548;9.964;2023-07-08T02:31:07;17.60;1.00
28614;DHT22;15806;53.548;9.964;2023-07-08T02:32:47;17.60;1.00
28614;DHT22;15806;53.548;9.964;2023-07-08T02:34:28;17.60;1.00
28614;DHT22;15806;53.548;9.964;2023-07-08T02:36:09;17.50;1.00
28614;DHT22;15806;53.548;9.964;2023-07-08T02:37:49;17.50;1.00
28614;DHT22;15806;53.548;9.964;2023-07-08T02:39:30;17.60;1.00
28614;DHT22;15806;53.548;9.964;2023-07-08T02:41:10;17.50;1.00
28614;DHT22;15806;53.548;9.964;2023-07-08T02:42:51;17.50;1.00
28614;DHT22;15806;53.548;9.964;2023-07-08T02:44:31;17.50;1.00
28614;DHT22;15806;53.548;9.964;2023-07-08T02:46:12;17.50;1.00
28614;DHT22;15806;53.548;9.964;2023-07-08T02:47:52;17.50;1.00
28614;DHT22;15806;53.548;9.964;2023-07-08T02:49:34;17.40;1.00
28614;DHT22;15806;53.548;9.964;2023-07-08T02:51:14;17.40;1.00
28614;DHT22;15806;53.548;9.964;2023-07-08T02:52:55;17.50;1.00
28614;DHT22;15806;53.548;9.964;2023-07-08T02:54:35;17.40;1.00
28614;DHT22;15806;53.548;9.964;2023-07-08T02:56:16;17.50;1.00
28614;DHT22;15806;53.548;9.964;2023-07-08T02:57:57;17.50;1.00
28614;DHT22;15806;53.548;9.964;2023-07-08T02:59:37;17.40;1.00
28614;DHT22;15806;53.548;9.964;2023-07-08T03:01:18;17.40;1.00
28614;DHT22;15806;53.548;9.964;2023-07-08T03:02:58;17.40;1.00
28614;DHT22;15806;53.548;9.964;2023-07-08T03:04:39;17.40;1.00
28614;DHT22;15806;53.548;9.964;2023-07-08T03:06:19;17.40;1.00
28614;DHT22;15806;53.548;9.964;2023-07-08T03:08:00;17.40;1.00
28614;DHT22;15806;53.548;9.964;2023-07-08T03:09:41;17.40;1.00
28614;DHT22;15806;53.548;9.964;2023-07-08T03:11:21;17.40;1.00
28614;DHT22;15806;53.548;9.964;2023-07-08T03:13:02;17.40;19.00
28614;DHT22;15806;53.548;9.964;2023-07-08T03:14:42;17.30;41.10
28614;DHT22;15806;53.548;9.964;2023-07-08T03:16:23;17.30;67.90
28614;DHT22;15806;53.548;9.964;2023-07-08T03:18:04;17.30;99.90
28614;DHT22;15806;53.548;9.964;2023-07-08T03:19:44;17.20;99.90
28614;DHT22;15806;53.548;9.964;2023-07-08T03:21:25;17.30;99.90
28614;DHT22;15806;53.548;9.964;2023-07-08T03:23:05;17.30;90.40
28614;DHT22;15806;53.548;9.964;2023-07-08T03:24:46;17.30;93.90
28614;DHT22;15806;53.548;9.964;2023-07-08T03:26:27;17.20;69.70
28614;DHT22;15806;53.548;9.964;2023-07-08T03:28:07;17.20;73.40
28614;DHT22;15806;53.548;9.964;2023-07-08T03:29:48;17.20;56.00
28614;DHT22;15806;53.548;9.964;2023-07-08T03:31:29;17.30;27.10
28614;DHT22;15806;53.548;9.964;2023-07-08T03:33:10;17.20;28.60
28614;DHT22;15806;53.548;9.964;2023-07-08T03:34:50;17.20;35.80
28614;DHT22;15806;53.548;9.964;2023-07-08T03:36:31;17.20;42.70
28614;DHT22;15806;53.548;9.964;2023-07-08T03:38:11;17.20;31.70
28614;DHT22;15806;53.548;9.964;2023-07-08T03:39:52;17.20;29.30
28614;DHT22;15806;53.548;9.964;2023-07-08T03:41:32;17.20;29.20
28614;DHT22;15806;53.548;9.964;2023-07-08T03:43:13;17.20;7.70
28614;DHT22;15806;53.548;9.964;2023-07-08T03:44:53;17.20;1.00
28614;DHT22;15806;53.548;9.964;2023-07-08T03:46:34;17.20;1.00
28614;DHT22;15806;53.548;9.964;2023-07-08T03:48:14;17.30;1.70
28614;DHT22;15806;53.548;9.964;2023-07-08T03:49:55;17.30;1.00
28614;DHT22;15806;53.548;9.964;2023-07-08T03:51:39;17.30;1.00
28614;DHT22;15806;53.548;9.964;2023-07-08T03:53:19;17.30;1.00
28614;DHT22;15806;53.548;9.964;2023-07-08T03:55:00;17.30;1.00
28614;DHT22;15806;53.548;9.964;2023-07-08T03:56:41;17.30;1.00
28614;DHT22;15806;53.548;9.964;2023-07-08T03:58:21;17.20;1.00
28614;DHT22;15806;53.548;9.964;2023-07-08T04:00:02;17.20;1.00
28614;DHT22;15806;53.548;9.964;2023-07-08T04:01:43;17.20;25.80
28614;DHT22;15806;53.548;9.964;2023-07-08T04:03:23;17.20;74.90
28614;DHT22;15806;53.548;9.964;2023-07-08T04:05:04;17.30;1.00
28614;DHT22;15806;53.548;9.964;2023-07-08T04:06:45;17.30;1.00
28614;DHT22;15806;53.548;9.964;2023-07-08T04:08:26;17.30;1.00
28614;DHT22;15806;53.548;9.964;2023-07-08T04:10:08;17.30;1.00
28614;DHT22;15806;53.548;9.964;2023-07-08T04:11:49;17.30;1.00
28614;DHT22;15806;53.548;9.964;2023-07-08T04:13:29;17.40;1.00
28614;DHT22;15806;53.548;9.964;2023-07-08T04:15:11;17.40;1.00
28614;DHT22;15806;53.548;9.964;2023-07-08T04:16:58;17.40;1.00
28614;DHT22;15806;53.548;9.964;2023-07-08T04:18:39;17.40;1.00
28614;DHT22;15806;53.548;9.964;2023-07-08T04:20:19;17.40;1.00
28614;DHT22;15806;53.548;9.964;2023-07-08T04:22:01;17.50;1.00
28614;DHT22;15806;53.548;9.964;2023-07-08T04:23:42;17.50;1.00
28614;DHT22;15806;53.548;9.964;2023-07-08T04:25:23;17.50;1.00
28614;DHT22;15806;53.548;9.964;2023-07-08T04:27:04;17.50;1.00
28614;DHT22;15806;53.548;9.964;2023-07-08T04:28:45;17.60;1.00
28614;DHT22;15806;53.548;9.964;2023-07-08T04:30:26;17.60;1.00
28614;DHT22;15806;53.548;9.964;2023-07-08T04:32:07;17.60;1.00
28614;DHT22;15806;53.548;9.964;2023-07-08T04:33:47;17.60;1.00
28614;DHT22;15806;53.548;9.964;2023-07-08T04:35:28;17.60;1.00
28614;DHT22;15806;53.548;9.964;2023-07-08T04:37:11;17.70;1.00
28614;DHT22;15806;53.548;9.964;2023-07-08T04:38:51;17.70;99.90
28614;DHT22;15806;53.548;9.964;2023-07-08T04:40:32;17.70;99.90
28614;DHT22;15806;53.548;9.964;2023-07-08T04:42:14;17.70;1.00
28614;DHT22;15806;53.548;9.964;2023-07-08T04:43:54;17.70;99.90
28614;DHT22;15806;53.548;9.964;2023-07-08T04:45:35;17.70;99.90
28614;DHT22;15806;53.548;9.964;2023-07-08T04:47:15;17.60;1.00
28614;DHT22;15806;53.548;9.964;2023-07-08T04:48:56;17.60;1.00
28614;DHT22;15806;53.548;9.964;2023-07-08T04:50:36;17.70;99.90
28614;DHT22;15806;53.548;9.964;2023-07-08T04:52:17;17.70;99.90
28614;DHT22;15806;53.548;9.964;2023-07-08T04:53:57;17.70;99.90
28614;DHT22;15806;53.548;9.964;2023-07-08T04:55:55;17.80;99.90
28614;DHT22;15806;53.548;9.964;2023-07-08T04:57:36;17.80;99.90
28614;DHT22;15806;53.548;9.964;2023-07-08T04:59:19;17.80;99.90
28614;DHT22;15806;53.548;9.964;2023-07-08T05:01:00;17.80;99.90
28614;DHT22;15806;53.548;9.964;2023-07-08T05:02:41;17.80;99.90
28614;DHT22;15806;53.548;9.964;2023-07-08T05:04:22;17.80;99.90
28614;DHT22;15806;53.548;9.964;2023-07-08T05:06:03;17.90;99.90
28614;DHT22;15806;53.548;9.964;2023-07-08T05:07:43;18.00;99.90
28614;DHT22;15806;53.548;9.964;2023-07-08T05:09:24;18.00;99.90
28614;DHT22;15806;53.548;9.964;2023-07-08T05:11:04;18.00;99.90
28614;DHT22;15806;53.548;9.964;2023-07-08T05:12:46;18.10;99.90
28614;DHT22;15806;53.548;9.964;2023-07-08T05:14:26;18.10;99.90
28614;DHT22;15806;53.548;9.964;2023-07-08T05:16:07;18.10;99.90
28614;DHT22;15806;53.548;9.964;2023-07-08T05:17:50;18.20;99.90
28614;DHT22;15806;53.548;9.964;2023-07-08T05:19:31;18.20;99.90
28614;DHT22;15806;53.548;9.964;2023-07-08T05:21:12;18.30;99.90
28614;DHT22;15806;53.548;9.964;2023-07-08T05:22:52;18.30;99.90
28614;DHT22;15806;53.548;9.964;2023-07-08T05:24:33;18.30;99.90
28614;DHT22;15806;53.548;9.964;2023-07-08T05:26:13;18.40;99.90
28614;DHT22;15806;53.548;9.964;2023-07-08T05:27:54;18.50;99.90
28614;DHT22;15806;53.548;9.964;2023-07-08T05:29:34;18.50;93.70
28614;DHT22;15806;53.548;9.964;2023-07-08T05:31:15;18.50;64.90
28614;DHT22;15806;53.548;9.964;2023-07-08T05:32:56;18.60;56.70
28614;DHT22;15806;53.548;9.964;2023-07-08T05:34:36;18.60;28.40
28614;DHT22;15806;53.548;9.964;2023-07-08T05:36:17;18.70;1.00
28614;DHT22;15806;53.548;9.964;2023-07-08T05:37:57;18.80;1.00
28614;DHT22;15806;53.548;9.964;2023-07-08T05:39:38;18.80;1.00
28614;DHT22;15806;53.548;9.964;2023-07-08T05:41:19;18.80;1.00
28614;DHT22;15806;53.548;9.964;2023-07-08T05:42:59;18.90;1.00
28614;DHT22;15806;53.548;9.964;2023-07-08T05:44:40;19.00;1.00
28614;DHT22;15806;53.548;9.964;2023-07-08T05:46:20;19.10;1.00
28614;DHT22;15806;53.548;9.964;2023-07-08T05:48:02;19.10;1.00
28614;DHT22;15806;53.548;9.964;2023-07-08T05:49:42;19.20;1.00
28614;DHT22;15806;53.548;9.964;2023-07-08T05:51:23;19.20;1.00
28614;DHT22;15806;53.548;9.964;2023-07-08T05:53:03;19.20;1.00
28614;DHT22;15806;53.548;9.964;2023-07-08T05:54:44;19.30;1.00
28614;DHT22;15806;53.548;9.964;2023-07-08T05:56:24;19.30;1.00
28614;DHT22;15806;53.548;9.964;2023-07-08T05:58:05;19.40;1.00
28614;DHT22;15806;53.548;9.964;2023-07-08T05:59:45;19.40;1.00
28614;DHT22;15806;53.548;9.964;2023-07-08T06:01:26;19.40;1.00
28614;DHT22;15806;53.548;9.964;2023-07-08T06:03:07;19.40;1.00
28614;DHT22;15806;53.548;9.964;2023-07-08T06:04:47;19.50;1.00
28614;DHT22;15806;53.548;9.964;2023-07-08T06:06:28;19.50;1.00
28614;DHT22;15806;53.548;9.964;2023-07-08T06:08:09;19.60;1.00
28614;DHT22;15806;53.548;9.964;2023-07-08T06:09:50;19.70;1.00
28614;DHT22;15806;53.548;9.964;2023-07-08T06:11:30;19.70;1.00
28614;DHT22;15806;53.548;9.964;2023-07-08T06:13:11;19.70;1.00
28614;DHT22;15806;53.548;9.964;2023-07-08T06:14:52;19.80;1.00
28614;DHT22;15806;53.548;9.964;2023-07-08T06:16:33;19.90;1.00
28614;DHT22;15806;53.548;9.964;2023-07-08T06:18:14;19.90;1.00
28614;DHT22;15806;53.548;9.964;2023-07-08T06:19:54;19.90;1.00
28614;DHT22;15806;53.548;9.964;2023-07-08T06:21:35;20.00;1.00
28614;DHT22;15806;53.548;9.964;2023-07-08T06:23:16;20.10;1.00
28614;DHT22;15806;53.548;9.964;2023-07-08T06:24:56;20.20;1.00
28614;DHT22;15806;53.548;9.964;2023-07-08T06:26:37;20.20;1.00
28614;DHT22;15806;53.548;9.964;2023-07-08T06:28:18;20.30;1.00
28614;DHT22;15806;53.548;9.964;2023-07-08T06:29:59;20.30;1.00
28614;DHT22;15806;53.548;9.964;2023-07-08T06:31:40;20.30;1.00
28614;DHT22;15806;53.548;9.964;2023-07-08T06:33:20;20.20;1.00
28614;DHT22;15806;53.548;9.964;2023-07-08T06:35:01;20.30;1.00
28614;DHT22;15806;53.548;9.964;2023-07-08T06:36:41;20.30;1.00
28614;DHT22;15806;53.548;9.964;2023-07-08T06:38:22;20.40;1.00
28614;DHT22;15806;53.548;9.964;2023-07-08T06:40:03;20.50;1.00
28614;DHT22;15806;53.548;9.964;2023-07-08T06:41:44;20.50;1.00
28614;DHT22;15806;53.548;9.964;2023-07-08T06:43:25;20.50;1.00
28614;DHT22;15806;53.548;9.964;2023-07-08T06:45:05;20.70;1.00
28614;DHT22;15806;53.548;9.964;2023-07-08T06:46:46;21.30;1.00
28614;DHT22;15806;53.548;9.964;2023-07-08T06:48:27;21.60;99.90
28614;DHT22;15806;53.548;9.964;2023-07-08T06:50:08;21.50;99.90
28614;DHT22;15806;53.548;9.964;2023-07-08T06:51:48;21.80;99.90
28614;DHT22;15806;53.548;9.964;2023-07-08T06:53:29;21.70;99.90
28614;DHT22;15806;53.548;9.964;2023-07-08T06:55:11;21.50;99.90
28614;DHT22;15806;53.548;9.964;2023-07-08T06:56:51;22.00;99.90
28614;DHT22;15806;53.548;9.964;2023-07-08T06:58:32;23.10;99.90
28614;DHT22;15806;53.548;9.964;2023-07-08T07:00:13;23.20;99.90
28614;DHT22;15806;53.548;9.964;2023-07-08T07:01:55;23.50;99.90
28614;DHT22;15806;53.548;9.964;2023-07-08T07:03:35;23.30;99.90
28614;DHT22;15806;53.548;9.964;2023-07-08T07:05:16;23.40;99.90
28614;DHT22;15806;53.548;9.964;2023-07-08T07:06:57;23.50;99.90
28614;DHT22;15806;53.548;9.964;2023-07-08T07:08:38;24.30;99.90
28614;DHT22;15806;53.548;9.964;2023-07-08T07:10:19;24.60;99.90
28614;DHT22;15806;53.548;9.964;2023-07-08T07:12:00;24.10;99.90
28614;DHT22;15806;53.548;9.964;2023-07-08T07:13:41;24.50;99.90
28614;DHT22;15806;53.548;9.964;2023-07-08T07:15:21;25.10;99.90
28614;DHT22;15806;53.548;9.964;2023-07-08T07:17:02;26.40;99.90
28614;DHT22;15806;53.548;9.964;2023-07-08T07:18:43;26.70;99.90
28614;DHT22;15806;53.548;9.964;2023-07-08T07:20:24;26.80;99.90
28614;DHT22;15806;53.548;9.964;2023-07-08T07:22:05;26.90;99.90
28614;DHT22;15806;53.548;9.964;2023-07-08T07:23:46;26.70;99.90
28614;DHT22;15806;53.548;9.964;2023-07-08T07:25:26;26.90;99.90
28614;DHT22;15806;53.548;9.964;2023-07-08T07:27:08;26.80;99.90
28614;DHT22;15806;53.548;9.964;2023-07-08T07:28:49;25.80;99.90
28614;DHT22;15806;53.548;9.964;2023-07-08T07:30:29;25.90;99.90
28614;DHT22;15806;53.548;9.964;2023-07-08T07:32:11;25.80;99.90
28614;DHT22;15806;53.548;9.964;2023-07-08T07:33:51;25.60;99.90
28614;DHT22;15806;53.548;9.964;2023-07-08T07:35:32;25.80;99.90
28614;DHT22;15806;53.548;9.964;2023-07-08T07:37:14;25.50;99.90
28614;DHT22;15806;53.548;9.964;2023-07-08T07:38:55;26.20;99.90
28614;DHT22;15806;53.548;9.964;2023-07-08T07:40:35;26.50;99.90
28614;DHT22;15806;53.548;9.964;2023-07-08T07:42:18;26.70;99.90
28614;DHT22;15806;53.548;9.964;2023-07-08T07:43:59;27.10;99.90
28614;DHT22;15806;53.548;9.964;2023-07-08T07:45:39;27.20;99.90
28614;DHT22;15806;53.548;9.964;2023-07-08T07:47:20;26.90;99.90
28614;DHT22;15806;53.548;9.964;2023-07-08T07:49:00;27.40;99.90
28614;DHT22;15806;53.548;9.964;2023-07-08T07:50:45;28.10;99.90
28614;DHT22;15806;53.548;9.964;2023-07-08T07:52:26;28.70;99.90
28614;DHT22;15806;53.548;9.964;2023-07-08T07:54:07;27.40;99.90
28614;DHT22;15806;53.548;9.964;2023-07-08T07:55:47;27.50;99.90
28614;DHT22;15806;53.548;9.964;2023-07-08T07:57:28;28.80;99.90
28614;DHT22;15806;53.548;9.964;2023-07-08T07:59:10;29.70;99.90
28614;DHT22;15806;53.548;9.964;2023-07-08T08:00:51;30.60;99.20
28614;DHT22;15806;53.548;9.964;2023-07-08T08:02:31;31.70;73.90
28614;DHT22;15806;53.548;9.964;2023-07-08T08:04:12;31.60;40.70
28614;DHT22;15806;53.548;9.964;2023-07-08T08:05:52;31.40;31.40
28614;DHT22;15806;53.548;9.964;2023-07-08T08:07:33;31.80;32.80
28614;DHT22;15806;53.548;9.964;2023-07-08T08:09:15;33.00;25.20
28614;DHT22;15806;53.548;9.964;2023-07-08T08:10:55;32.40;9.90
28614;DHT22;15806;53.548;9.964;2023-07-08T08:12:36;31.50;15.70
28614;DHT22;15806;53.548;9.964;2023-07-08T08:14:16;31.90;12.40
28614;DHT22;15806;53.548;9.964;2023-07-08T08:15:57;32.30;8.50
28614;DHT22;15806;53.548;9.964;2023-07-08T08:17:38;30.70;2.00
28614;DHT22;15806;53.548;9.964;2023-07-08T08:19:19;30.50;5.80
28614;DHT22;15806;53.548;9.964;2023-07-08T08:20:59;30.10;7.50
28614;DHT22;15806;53.548;9.964;2023-07-08T08:22:40;28.30;16.70
28614;DHT22;15806;53.548;9.964;2023-07-08T08:24:20;28.50;28.30
28614;DHT22;15806;53.548;9.964;2023-07-08T08:26:01;28.60;41.90
28614;DHT22;15806;53.548;9.964;2023-07-08T08:27:41;29.00;32.10
28614;DHT22;15806;53.548;9.964;2023-07-08T08:29:22;30.40;26.30
28614;DHT22;15806;53.548;9.964;2023-07-08T08:31:02;30.80;11.90
28614;DHT22;15806;53.548;9.964;2023-07-08T08:32:43;31.20;10.40
28614;DHT22;15806;53.548;9.964;2023-07-08T08:34:23;31.00;6.30
28614;DHT22;15806;53.548;9.964;2023-07-08T08:36:04;29.80;1.00
28614;DHT22;15806;53.548;9.964;2023-07-08T08:37:44;28.50;8.60
28614;DHT22;15806;53.548;9.964;2023-07-08T08:39:25;30.20;12.50
28614;DHT22;15806;53.548;9.964;2023-07-08T08:41:33;31.60;4.30
28614;DHT22;15806;53.548;9.964;2023-07-08T08:43:22;31.90;1.00
28614;DHT22;15806;53.548;9.964;2023-07-08T08:45:04;32.20;1.00
28614;DHT22;15806;53.548;9.964;2023-07-08T08:46:54;32.80;1.00
28614;DHT22;15806;53.548;9.964;2023-07-08T08:48:55;33.00;1.00
28614;DHT22;15806;53.548;9.964;2023-07-08T08:50:53;32.50;1.00
28614;DHT22;15806;53.548;9.964;2023-07-08T08:52:36;32.90;1.00
28614;DHT22;15806;53.548;9.964;2023-07-08T08:54:19;31.90;1.00
28614;DHT22;15806;53.548;9.964;2023-07-08T08:56:11;33.30;1.00
28614;DHT22;15806;53.548;9.964;2023-07-08T08:59:57;32.80;1.00
28614;DHT22;15806;53.548;9.964;2023-07-08T09:01:38;30.50;1.00
28614;DHT22;15806;53.548;9.964;2023-07-08T09:05:29;29.90;1.00
28614;DHT22;15806;53.548;9.964;2023-07-08T09:07:16;30.90;1.00
28614;DHT22;15806;53.548;9.964;2023-07-08T09:09:02;31.30;1.00
28614;DHT22;15806;53.548;9.964;2023-07-08T09:10:58;32.90;1.00
28614;DHT22;15806;53.548;9.964;2023-07-08T09:12:40;32.60;1.00
28614;DHT22;15806;53.548;9.964;2023-07-08T09:14:25;31.10;1.00
28614;DHT22;15806;53.548;9.964;2023-07-08T09:18:17;30.70;1.00
28614;DHT22;15806;53.548;9.964;2023-07-08T09:21:57;32.60;1.00
28614;DHT22;15806;53.548;9.964;2023-07-08T09:23:41;32.90;1.00
28614;DHT22;15806;53.548;9.964;2023-07-08T09:25:34;32.00;1.00
28614;DHT22;15806;53.548;9.964;2023-07-08T09:27:15;32.70;1.00
28614;DHT22;15806;53.548;9.964;2023-07-08T09:28:56;33.50;1.00
28614;DHT22;15806;53.548;9.964;2023-07-08T09:30:38;33.50;1.00
28614;DHT22;15806;53.548;9.964;2023-07-08T09:32:24;31.60;1.00
28614;DHT22;15806;53.548;9.964;2023-07-08T09:34:09;30.50;1.00
28614;DHT22;15806;53.548;9.964;2023-07-08T09:35:51;29.80;1.00
28614;DHT22;15806;53.548;9.964;2023-07-08T09:37:36;30.50;1.00
28614;DHT22;15806;53.548;9.964;2023-07-08T09:39:19;31.50;1.00
28614;DHT22;15806;53.548;9.964;2023-07-08T09:41:00;32.90;1.00
28614;DHT22;15806;53.548;9.964;2023-07-08T09:42:43;33.90;1.00
28614;DHT22;15806;53.548;9.964;2023-07-08T09:44:28;32.20;1.00
28614;DHT22;15806;53.548;9.964;2023-07-08T09:46:12;31.10;1.00
28614;DHT22;15806;53.548;9.964;2023-07-08T09:47:56;30.90;1.00
28614;DHT22;15806;53.548;9.964;2023-07-08T09:49:39;32.20;1.00
28614;DHT22;15806;53.548;9.964;2023-07-08T09:51:20;31.30;1.00
28614;DHT22;15806;53.548;9.964;2023-07-08T09:53:00;31.10;1.00
28614;DHT22;15806;53.548;9.964;2023-07-08T09:54:41;31.80;1.00
28614;DHT22;15806;53.548;9.964;2023-07-08T09:56:22;31.10;1.00
28614;DHT22;15806;53.548;9.964;2023-07-08T09:58:02;31.50;1.00
28614;DHT22;15806;53.548;9.964;2023-07-08T09:59:47;32.40;1.00
28614;DHT22;15806;53.548;9.964;2023-07-08T10:01:28;31.80;1.00
28614;DHT22;15806;53.548;9.964;2023-07-08T10:03:19;33.10;1.00
28614;DHT22;15806;53.548;9.964;2023-07-08T10:05:12;33.70;1.00
28614;DHT22;15806;53.548;9.964;2023-07-08T10:06:54;31.60;1.00
28614;DHT22;15806;53.548;9.964;2023-07-08T10:08:41;31.90;1.00
28614;DHT22;15806;53.548;9.964;2023-07-08T10:10:32;32.90;1.00
28614;DHT22;15806;53.548;9.964;2023-07-08T10:12:14;33.10;1.00
28614;DHT22;15806;53.548;9.964;2023-07-08T10:14:23;32.10;1.00
28614;DHT22;15806;53.548;9.964;2023-07-08T10:16:24;31.30;1.00
28614;DHT22;15806;53.548;9.964;2023-07-08T10:18:15;32.10;1.00
28614;DHT22;15806;53.548;9.964;2023-07-08T10:19:59;32.90;1.00
28614;DHT22;15806;53.548;9.964;2023-07-08T10:25:42;33.20;1.00
28614;DHT22;15806;53.548;9.964;2023-07-08T10:29:51;33.30;1.00
28614;DHT22;15806;53.548;9.964;2023-07-08T10:35:21;33.40;1.00
28614;DHT22;15806;53.548;9.964;2023-07-08T10:37:22;33.20;1.00
28614;DHT22;15806;53.548;9.964;2023-07-08T10:40:53;33.30;1.00
28614;DHT22;15806;53.548;9.964;2023-07-08T10:51:34;31.50;1.00
28614;DHT22;15806;53.548;9.964;2023-07-08T10:58:36;33.60;1.00
28614;DHT22;15806;53.548;9.964;2023-07-08T11:02:34;32.40;1.00
28614;DHT22;15806;53.548;9.964;2023-07-08T11:06:44;32.30;1.00
28614;DHT22;15806;53.548;9.964;2023-07-08T11:08:31;33.30;1.00
28614;DHT22;15806;53.548;9.964;2023-07-08T11:10:25;33.00;1.00
28614;DHT22;15806;53.548;9.964;2023-07-08T11:14:29;33.80;1.00
28614;DHT22;15806;53.548;9.964;2023-07-08T11:21:41;33.70;1.00
28614;DHT22;15806;53.548;9.964;2023-07-08T11:25:18;36.00;1.00
28614;DHT22;15806;53.548;9.964;2023-07-08T11:27:21;35.60;1.00
28614;DHT22;15806;53.548;9.964;2023-07-08T11:29:19;34.50;1.00
28614;DHT22;15806;53.548;9.964;2023-07-08T11:31:02;35.20;1.00
28614;DHT22;15806;53.548;9.964;2023-07-08T11:32:45;33.70;1.00
28614;DHT22;15806;53.548;9.964;2023-07-08T11:34:26;33.80;1.00
28614;DHT22;15806;53.548;9.964;2023-07-08T11:36:08;35.20;1.00
28614;DHT22;15806;53.548;9.964;2023-07-08T11:37:50;36.20;1.00
28614;DHT22;15806;53.548;9.964;2023-07-08T11:39:43;35.80;1.00
28614;DHT22;15806;53.548;9.964;2023-07-08T11:41:26;35.60;1.00
28614;DHT22;15806;53.548;9.964;2023-07-08T11:43:12;34.20;1.00
28614;DHT22;15806;53.548;9.964;2023-07-08T11:44:56;33.70;1.00